South Fork, PA (15956)

10:00 AM EDT on June 02, 2015 (GMT -0400)
Jackson Twp - Swigle Mountain Road | | Change Station
CLOSE
Current Station
Personal Weather Station
Location: Mineral Point, PA
Elevation: 2277 ft
Nearby Weather Stations

Elev 2277 ft 40.40 °N, 78.80 °W | Updated 2 seconds ago

Overcast
Overcast
57.2 °F
Feels Like 57.2 °F
N
2.3
Wind Variable Wind from NNE
Gusts 0.0 mph

Today
High -- | Low -- °F
--% Chance of Precip.
Yesterday
High -- | Low -- °F
Precip. -- in
5:46 AM 8:39 PM
Full, 100% visible
Pressure 30.12 in
Visibility 0.5 miles
Clouds
Dew Point 57 °F
Humidity 98%
Rainfall 0.04 in
Snow Depth Not available.
UV Not available.
Pollen 3.50 out of 12
Air Quality Not available.
Flu Activity Sporadic
METAR KJST 021354Z AUTO 04006KT 1/2SM FG VV002 12/11 A3012 RMK AO2 SLP200 T01170106

More Conditions Fewer Conditions

Pressure 30.12 in
Visibility 0.5 miles
Clouds
Dew Point 57 °F
Humidity 98%
Rainfall 0.04 in
Snow Depth Not available.
UV Not available.
Pollen 3.50 out of 12
Air Quality Not available.
Flu Activity Sporadic
METAR KJST 021354Z AUTO 04006KT 1/2SM FG VV002 12/11 A3012 RMK AO2 SLP200 T01170106

More Conditions Fewer Conditions

10-Day Weather Forecast

Almanac

Astronomy

Jun. 02, 2015 Rise Set
Actual Time
Civil Twilight
Nautical Twilight
Astronomical Twilight
Moon
Length of Visible Light
Length of Day
Tomorrow will be .
, % of the Moon is Illuminated

Today's Extremes

State Highs State Lows

Community

WunderPhotos

Upload Photos

1,825,915 photos uploaded!

WunderBlogs® & News

Nearby

Air Quality

  Air Quality AQ Index Pollutant
Not available.

Snow Depth

Station Depth Elevation

Earthquake Activity

City Distance Mag. Time & Date
Minimum magnitude displayed is 2.5.

Coastal Water Temperatures

Place Temperature

Stations

Nearby Weather Stations

Station Location Temp. Windchill Dew Point Humidity Wind Precip. Elev Updated Type